Terminal Aerodrome Forecast
Issued by NWS Missoula, MT

Home | Current Version | Previous Version | Text Only | Print | Product List | Glossary On
Versions: 1 2 3 4 5 6 7 8 9 10 11 12 13 14 15 16 17
000
FTUS45 KMSO 281126
TAFBTM
TAF
KBTM 281126Z 2812/2912 VRB04KT P6SM -SHRA FEW050 BKN070
     FM281800 33006KT P6SM VCSH BKN050
     FM282200 34011KT P6SM -SHRA VCTS BKN050CB OVC080
     FM290100 06013G22KT P6SM -SHRA BKN040 OVC060=

USA.gov is the U.S. government's official web portal to all federal, state and local government web resources and services.